»·PEaware :: N544TH KSNA-KSBD

N544TH :: KSNA-KSBD

FLIGHT INFORMATION

Flight Status: Arrived
Operator: Privately registered:
United States
More flights under this callsign
Pilot: Nick R. (33487)
Aircraft: CESSNA 172 SKYHAWK
(C172)
More flights by this aircraft type
Origin: KSNA John Wayne-Orange Co
United States
Destination: KSBD San Bernardino Intl
United States
More flights between these airports :: More routes between these airports
Route: SLI V8 PDZ
File this flight plan on PilotEdge
Remarks:
Altitude:
(Current/Filed)
5,000ft
Speed:
(Current/Filed)
110kts
Departed: 16-Aug-21 06:51 PM
Arrived: 16-Aug-21 07:23 PM
Distance/Time
Traveled:
40nm/0:31
Distance/Time
To Go:
Arrived

Flight Plot

Page will automatically refresh every two minutes.


Map Options




Map Legend


Flown Route
Filed Route
Departure Airport
Arrival Airport
Navaid (VOR, NDB)
Fix

Horizontal Profiles

Position Reports

Time Latitude Longitude Heading Altitude Ground
Speed
16-Aug-21 18:37 33.675626 -117.871061 40 60ft 0kts
16-Aug-21 18:38 33.675626 -117.871061 40 60ft 0kts
16-Aug-21 18:39 33.675626 -117.871061 40 60ft 0kts
16-Aug-21 18:40 33.675626 -117.871061 40 60ft 0kts
16-Aug-21 18:41 33.675626 -117.871061 40 60ft 0kts
16-Aug-21 18:42 33.675626 -117.871061 40 60ft 0kts
16-Aug-21 18:43 33.675626 -117.871061 40 60ft 0kts
16-Aug-21 18:44 33.675626 -117.871061 40 60ft 0kts
16-Aug-21 18:45 33.675634 -117.871053 39 60ft 1kts
16-Aug-21 18:46 33.677544 -117.868735 340 60ft 0kts
16-Aug-21 18:47 33.677659 -117.868784 346 60ft 8kts
16-Aug-21 18:48 33.681178 -117.866364 116 60ft 0kts
16-Aug-21 18:49 33.681178 -117.866364 116 60ft 0kts
16-Aug-21 18:50 33.676040 -117.868441 205 134ft 68kts
16-Aug-21 18:51 33.663121 -117.884514 235 950ft 68kts
16-Aug-21 18:52 33.651657 -117.903493 230 1712ft 72kts
16-Aug-21 18:53 33.636088 -117.924422 226 2044ft 99kts
16-Aug-21 18:54 33.615316 -117.948527 227 2041ft 106kts
16-Aug-21 18:55 33.630277 -117.958606 19 2645ft 114kts
16-Aug-21 18:56 33.657263 -117.946880 8 3496ft 102kts
16-Aug-21 18:57 33.685017 -117.939106 8 4193ft 102kts
16-Aug-21 18:58 33.712863 -117.931994 1 4859ft 101kts
16-Aug-21 18:59 33.741532 -117.923067 7 5060ft 105kts
16-Aug-21 19:00 33.771155 -117.916748 3 5002ft 108kts
16-Aug-21 19:01 33.800286 -117.909499 16 5009ft 108kts
16-Aug-21 19:02 33.823423 -117.887008 62 5014ft 113kts
16-Aug-21 19:03 33.835819 -117.852072 63 5024ft 113kts
16-Aug-21 19:04 33.847040 -117.816417 67 5034ft 114kts
16-Aug-21 19:05 33.858949 -117.780915 64 5015ft 116kts
16-Aug-21 19:06 33.871312 -117.745594 70 5021ft 114kts
16-Aug-21 19:07 33.882779 -117.711020 48 5051ft 109kts
16-Aug-21 19:08 33.900474 -117.680916 51 5057ft 109kts
16-Aug-21 19:09 33.916513 -117.648651 54 4772ft 114kts
16-Aug-21 19:10 33.929508 -117.616585 52 4449ft 102kts
16-Aug-21 19:11 33.944526 -117.586184 46 4014ft 104kts
16-Aug-21 19:12 33.960814 -117.556211 49 4008ft 107kts
16-Aug-21 19:13 33.978771 -117.527281 42 4001ft 108kts
16-Aug-21 19:14 33.995161 -117.496529 49 4023ft 109kts
16-Aug-21 19:15 34.012655 -117.466455 52 4027ft 111kts
16-Aug-21 19:16 34.029270 -117.434710 50 4015ft 111kts
16-Aug-21 19:17 34.045382 -117.403001 58 3938ft 107kts
16-Aug-21 19:18 34.056381 -117.369387 68 3240ft 109kts
16-Aug-21 19:19 34.067819 -117.330033 66 2587ft 137kts
16-Aug-21 19:20 34.080557 -117.284560 69 1783ft 146kts
16-Aug-21 19:21 34.092469 -117.244337 67 1161ft 62kts
16-Aug-21 19:22 34.094184 -117.242068 351 1161ft 0kts
16-Aug-21 19:23 34.094411 -117.242066 0 1161ft 6kts
16-Aug-21 19:24 34.096848 -117.242636 275 1161ft 0kts
16-Aug-21 19:25 34.096848 -117.242636 275 1161ft 0kts
16-Aug-21 19:26 34.096848 -117.242636 275 1161ft 0kts
16-Aug-21 19:27 34.096848 -117.242636 275 1161ft 0kts
16-Aug-21 19:28 34.096848 -117.242636 275 1161ft 0kts
16-Aug-21 19:29 34.096848 -117.242636 275 1161ft 0kts

Navigation Log

Ident Type
Flight plan parsing failed, navigation log unavailable